Time;durP1;ratioP1;P1;durP2;ratioP2;P2;SDS_P1;SDS_P2;PMS_P1;PMS_P2;Temp;Humidity;BMP_temperature;BMP_pressure;BME280_temperature;BME280_humidity;BME280_pressure;Samples;Min_cycle;Max_cycle;Signal;HPM_P1;HPM_P2
2023/06/12 00:01:51;;;;;;;;;;;25.30;45.40;;;25.47;31.97;98433.78;5026311;27;114128;-79
2023/06/12 00:04:17;;;;;;;;;;;25.30;45.50;;;25.45;31.70;98427.75;5028782;27;113728;-79
2023/06/12 00:06:43;;;;;;;;;;;25.20;45.40;;;25.41;31.88;98429.78;5012237;27;123819;-79
2023/06/12 00:09:12;;;;;;;;;;;25.20;45.30;;;25.38;31.64;98424.97;5025802;27;124593;-79
2023/06/12 00:11:40;;;;;;;;;;;25.20;45.30;;;25.35;31.32;98431.47;5027581;27;114851;-79
2023/06/12 00:14:08;;;;;;;;;;;25.10;45.20;;;25.33;31.56;98429.09;5033483;27;114773;-79
2023/06/12 00:16:37;;;;;;;;;;;25.20;45.40;;;25.31;31.61;98427.91;5026576;27;124034;-79
2023/06/12 00:19:03;;;;;;;;;;;25.10;45.40;;;25.29;31.56;98427.53;5030575;27;124289;-79
2023/06/12 00:21:29;;;;;;;;;;;25.10;45.40;;;25.28;31.70;98429.56;5029387;27;113927;-79
2023/06/12 00:23:56;;;;;;;;;;;25.10;45.50;;;25.26;31.60;98431.19;5028584;27;113663;-79
2023/06/12 00:26:22;;;;;;;;;;;25.00;45.50;;;25.23;31.75;98429.22;5025116;27;123872;-79
2023/06/12 00:28:50;;;;;;;;;;;25.00;45.50;;;25.20;31.82;98424.38;5027407;27;124299;-78
2023/06/12 00:31:17;;;;;;;;;;;25.00;45.60;;;25.16;31.70;98429.28;5026288;27;115013;-79
2023/06/12 00:33:43;;;;;;;;;;;24.90;45.50;;;25.13;31.92;98428.84;5026093;27;113136;-79
2023/06/12 00:36:10;;;;;;;;;;;24.90;45.60;;;25.10;31.88;98424.03;5025201;27;124542;-79
2023/06/12 00:38:38;;;;;;;;;;;24.90;45.60;;;25.08;32.09;98423.66;5025659;27;123684;-79
2023/06/12 00:41:04;;;;;;;;;;;24.90;45.70;;;25.06;32.02;98431.75;5031148;27;115917;-79
2023/06/12 00:43:34;;;;;;;;;;;24.90;45.80;;;25.04;31.96;98436.22;5027505;27;113905;-79
2023/06/12 00:46:01;;;;;;;;;;;24.80;45.80;;;25.03;31.93;98440.28;5004562;28;123370;-79
2023/06/12 00:48:29;;;;;;;;;;;24.80;45.90;;;25.00;32.03;98439.09;5025526;27;123496;-79
2023/06/12 00:50:56;;;;;;;;;;;24.80;46.10;;;24.97;32.17;98428.63;5025868;27;114464;-79
2023/06/12 00:53:22;;;;;;;;;;;24.80;46.20;;;24.95;32.48;98431.06;5028802;27;112874;-77
2023/06/12 00:55:49;;;;;;;;;;;24.70;46.10;;;24.93;32.36;98427.84;5027935;27;123493;-79
2023/06/12 00:58:15;;;;;;;;;;;24.70;46.20;;;24.87;32.45;98429.50;5024943;27;124008;-79
2023/06/12 01:00:43;;;;;;;;;;;24.70;46.10;;;24.84;32.47;98427.53;5028340;27;115042;-79
2023/06/12 01:03:12;;;;;;;;;;;24.60;46.10;;;24.82;32.37;98427.13;5026474;27;116509;-79
2023/06/12 01:05:42;;;;;;;;;;;24.60;46.20;;;24.80;32.72;98430.41;5024649;27;123855;-79
2023/06/12 01:08:44;;;;;;;;;;;24.60;46.30;;;24.75;32.56;98432.88;5025545;27;123483;-79
2023/06/12 01:11:17;;;;;;;;;;;24.60;46.40;;;24.73;32.52;98438.94;5016793;27;116132;-79
2023/06/12 01:13:44;;;;;;;;;;;24.50;46.50;;;24.69;32.65;98429.69;5024927;27;113597;-79
2023/06/12 01:16:10;;;;;;;;;;;24.50;46.50;;;24.67;32.67;98435.75;5028440;27;124822;-79
2023/06/12 01:18:37;;;;;;;;;;;24.50;46.60;;;24.65;32.74;98429.69;5011512;28;123431;-79
2023/06/12 01:21:17;;;;;;;;;;;24.40;46.70;;;24.63;32.82;98431.34;5025060;27;114325;-79
2023/06/12 01:24:23;;;;;;;;;;;24.40;46.80;;;24.58;33.14;98428.94;5025150;27;113619;-79
2023/06/12 01:27:15;;;;;;;;;;;24.40;47.00;;;24.53;33.23;98435.88;5028290;27;124250;-77
2023/06/12 01:29:46;;;;;;;;;;;24.30;47.00;;;24.53;33.20;98427.41;5023228;27;124196;-78
2023/06/12 01:32:16;;;;;;;;;;;24.30;47.10;;;24.51;33.15;98429.81;5024916;27;114564;-77
2023/06/12 01:34:56;;;;;;;;;;;24.30;47.20;;;24.48;33.19;98430.66;5041084;27;113767;-77
2023/06/12 01:37:44;;;;;;;;;;;24.30;47.30;;;24.43;33.46;98429.03;5040564;27;124084;-78
2023/06/12 01:40:12;;;;;;;;;;;24.20;47.40;;;24.41;33.32;98436.31;5027292;28;123533;-77
2023/06/12 01:42:39;;;;;;;;;;;24.20;47.50;;;24.38;33.53;98432.31;5023977;28;114515;-78
2023/06/12 01:45:06;;;;;;;;;;;24.20;47.60;;;24.35;33.49;98427.50;5025338;28;112953;-77
2023/06/12 01:47:32;;;;;;;;;;;24.20;47.70;;;24.35;33.72;98432.34;5009831;28;123434;-78
2023/06/12 01:49:59;;;;;;;;;;;24.10;47.70;;;24.30;33.87;98430.75;5044408;27;123585;-78
2023/06/12 01:52:26;;;;;;;;;;;24.10;47.80;;;24.27;33.92;98430.78;5010080;28;115006;-77
2023/06/12 01:54:52;;;;;;;;;;;24.10;47.90;;;24.25;34.22;98434.00;5026058;28;114849;-78
2023/06/12 01:57:21;;;;;;;;;;;24.00;48.00;;;24.23;33.91;98427.97;5023979;28;124219;-77
2023/06/12 01:59:48;;;;;;;;;;;24.00;48.20;;;24.20;34.05;98432.41;5025806;28;123527;-77
2023/06/12 02:02:17;;;;;;;;;;;24.00;48.30;;;24.18;34.22;98434.03;5024030;27;113619;-77
2023/06/12 02:04:44;;;;;;;;;;;24.00;48.40;;;24.14;34.55;98428.44;5034511;27;113426;-77
2023/06/12 02:07:11;;;;;;;;;;;24.80;49.30;;;24.13;34.74;98434.50;5024691;28;123987;-78
2023/06/12 02:09:39;;;;;;;;;;;23.90;48.70;;;24.09;34.50;98431.69;5024255;28;123943;-77
2023/06/12 02:12:06;;;;;;;;;;;23.90;48.80;;;24.06;34.55;98432.53;5025593;28;115965;-77
2023/06/12 02:14:33;;;;;;;;;;;23.90;48.90;;;24.03;34.82;98439.78;5026659;28;113206;-77
2023/06/12 02:17:02;;;;;;;;;;;23.80;49.00;;;24.01;34.77;98432.94;5023399;28;124549;-77
2023/06/12 02:19:28;;;;;;;;;;;23.80;49.20;;;23.98;35.06;98442.25;5001307;28;125138;-79
2023/06/12 02:21:55;;;;;;;;;;;23.70;49.30;;;23.96;35.07;98436.19;5010225;27;114436;-79
2023/06/12 02:24:29;;;;;;;;;;;23.70;49.40;;;23.92;35.04;98438.25;5027340;27;113505;-79
2023/06/12 02:26:56;;;;;;;;;;;23.70;49.50;;;23.88;35.25;98437.44;5027991;28;124599;-79
2023/06/12 02:29:25;;;;;;;;;;;23.70;49.60;;;23.84;35.52;98436.69;5027279;28;123893;-79
2023/06/12 02:31:53;;;;;;;;;;;23.60;49.60;;;23.80;35.53;98437.50;5028261;28;114643;-79
2023/06/12 02:34:19;;;;;;;;;;;23.60;49.80;;;23.78;35.50;98442.75;5031061;28;112627;-78
2023/06/12 02:36:46;;;;;;;;;;;23.60;50.00;;;23.77;35.72;98437.50;5042743;27;124231;-79
2023/06/12 02:39:15;;;;;;;;;;;23.60;50.20;;;23.75;35.75;98432.28;5005904;28;123950;-78
2023/06/12 02:41:44;;;;;;;;;;;23.50;50.30;;;23.73;35.81;98436.72;5027849;28;114038;-79
2023/06/12 02:44:10;;;;;;;;;;;23.50;50.30;;;23.71;35.83;98434.31;5030498;28;115538;-78
2023/06/12 02:46:57;;;;;;;;;;;23.50;50.50;;;23.67;36.07;98427.03;5025906;28;123723;-77
2023/06/12 02:49:26;;;;;;;;;;;23.50;50.60;;;23.64;36.08;98433.50;5026790;28;123413;-79
2023/06/12 02:51:53;;;;;;;;;;;23.40;50.70;;;23.60;36.18;98425.88;5029990;28;113706;-79
2023/06/12 02:54:21;;;;;;;;;;;23.40;50.80;;;23.58;36.54;98435.94;5030764;27;113114;-79
2023/06/12 02:56:48;;;;;;;;;;;23.30;50.90;;;23.56;36.41;98432.72;5029404;27;123362;-79
2023/06/12 02:59:21;;;;;;;;;;;23.30;51.10;;;23.53;36.35;98427.91;5028754;28;123778;-79
2023/06/12 03:01:48;;;;;;;;;;;23.30;51.20;;;23.51;36.52;98433.16;5027547;27;114476;-79
2023/06/12 03:04:16;;;;;;;;;;;23.30;51.50;;;23.48;36.84;98439.59;5027103;28;114392;-79
2023/06/12 03:06:45;;;;;;;;;;;23.30;51.70;;;23.47;37.02;98443.63;5025891;28;124779;-79
2023/06/12 03:09:15;;;;;;;;;;;23.20;51.70;;;23.43;36.88;98446.47;5028351;27;123328;-79
2023/06/12 03:11:43;;;;;;;;;;;23.20;51.80;;;23.40;37.23;98443.66;5028053;27;114417;-79
2023/06/12 03:14:09;;;;;;;;;;;23.20;51.90;;;23.36;37.29;98447.28;5027319;27;113997;-79
2023/06/12 03:16:36;;;;;;;;;;;23.20;52.10;;;23.34;37.53;98448.91;5027600;27;124412;-79
2023/06/12 03:19:02;;;;;;;;;;;23.10;52.20;;;23.31;37.66;98455.38;5028074;27;125106;-79
2023/06/12 03:21:29;;;;;;;;;;;23.10;52.30;;;23.27;37.48;98452.56;5027725;27;114430;-79
2023/06/12 03:23:56;;;;;;;;;;;23.10;52.50;;;23.21;37.73;98451.34;5047508;27;112797;-79
2023/06/12 03:26:23;;;;;;;;;;;23.00;52.50;;;23.17;37.63;98450.56;5027185;27;124190;-78
2023/06/12 03:28:49;;;;;;;;;;;23.00;52.60;;;23.13;37.74;98459.03;5026885;27;123874;-80
2023/06/12 03:31:15;;;;;;;;;;;22.90;52.60;;;23.11;37.86;98457.84;5028538;27;115371;-79
2023/06/12 03:33:46;;;;;;;;;;;22.90;52.70;;;23.09;37.85;98463.88;5027514;27;114910;-79
2023/06/12 03:36:13;;;;;;;;;;;22.90;52.80;;;23.05;37.82;98456.63;5026465;27;124359;-79
2023/06/12 03:38:39;;;;;;;;;;;22.80;52.80;;;23.02;37.89;98452.59;5028781;28;123370;-79
2023/06/12 03:41:05;;;;;;;;;;;22.80;52.90;;;23.00;37.89;98468.28;5028135;28;114133;-79
2023/06/12 03:43:31;;;;;;;;;;;22.80;53.00;;;22.97;37.92;98464.31;5028853;28;113916;-78
2023/06/12 03:45:58;;;;;;;;;;;22.70;53.10;;;22.94;37.93;98477.16;5030931;28;124504;-79
2023/06/12 03:48:24;;;;;;;;;;;22.70;53.20;;;22.92;38.25;98467.50;5026150;28;123896;-79
2023/06/12 03:50:52;;;;;;;;;;;22.70;53.30;;;22.89;38.26;98463.47;5029597;27;108408;-80
2023/06/12 03:53:18;;;;;;;;;;;22.70;53.20;;;22.90;38.30;98472.72;5029123;27;113692;-79
2023/06/12 03:55:45;;;;;;;;;;;22.60;53.30;;;22.90;38.08;98478.34;5024560;28;123773;-79
2023/06/12 03:58:16;;;;;;;;;;;22.60;53.40;;;22.87;38.18;98481.97;5028872;27;123578;-79
2023/06/12 04:00:45;;;;;;;;;;;22.60;53.40;;;22.87;38.12;98488.41;5026055;27;114975;-79
2023/06/12 04:03:14;;;;;;;;;;;22.60;53.50;;;22.93;38.21;98481.16;5025648;27;114087;-79
2023/06/12 04:05:40;;;;;;;;;;;22.60;53.70;;;23.00;38.22;98486.03;5028705;27;123379;-79
2023/06/12 04:08:06;;;;;;;;;;;22.60;53.80;;;23.05;38.27;98487.63;5027043;28;123635;-79
2023/06/12 04:10:33;;;;;;;;;;;22.60;54.00;;;23.04;38.38;98484.00;5025344;28;114418;-79
2023/06/12 04:13:01;;;;;;;;;;;22.60;54.10;;;23.01;38.67;98482.00;5027887;28;113545;-79
2023/06/12 04:15:29;;;;;;;;;;;22.60;54.30;;;22.98;38.76;98488.44;5028077;28;123152;-80
2023/06/12 04:17:58;;;;;;;;;;;22.60;54.40;;;22.96;38.85;98484.38;5034282;27;123942;-79
2023/06/12 04:20:29;;;;;;;;;;;22.60;54.50;;;22.93;39.19;98498.06;5024740;28;115386;-79
2023/06/12 04:23:04;;;;;;;;;;;22.60;54.60;;;22.92;39.26;98499.28;5025752;28;114703;-79
2023/06/12 04:25:34;;;;;;;;;;;22.60;54.80;;;22.90;39.06;98498.88;5025496;28;124310;-79
2023/06/12 04:28:02;;;;;;;;;;;22.60;54.90;;;22.90;39.27;98498.88;5033240;27;124067;-79
2023/06/12 04:30:31;;;;;;;;;;;22.60;54.90;;;22.90;38.95;98490.41;5030011;28;113119;-79
2023/06/12 04:32:57;;;;;;;;;;;22.60;54.90;;;22.92;39.18;98501.28;5026472;28;113539;-79
2023/06/12 04:35:23;;;;;;;;;;;22.60;54.90;;;22.91;39.20;98494.84;5024925;28;124365;-79
2023/06/12 04:37:52;;;;;;;;;;;22.60;55.00;;;22.94;39.36;98505.31;5026842;27;123878;-79
2023/06/12 04:40:20;;;;;;;;;;;22.60;55.00;;;22.98;39.45;98504.53;5029803;28;115762;-79
2023/06/12 04:42:46;;;;;;;;;;;22.60;55.20;;;22.99;39.55;98509.75;5028244;28;112980;-79
2023/06/12 04:45:13;;;;;;;;;;;22.60;55.60;;;23.01;39.39;98521.44;5024472;28;124251;-79
2023/06/12 04:47:40;;;;;;;;;;;22.70;55.60;;;22.99;39.60;98523.06;5024812;28;123701;-79
2023/06/12 04:50:10;;;;;;;;;;;22.60;55.60;;;22.98;39.59;98510.97;5025291;28;114410;-79
2023/06/12 04:52:40;;;;;;;;;;;22.70;55.70;;;22.98;39.49;98513.78;5026275;28;114249;-79
2023/06/12 04:55:10;;;;;;;;;;;22.60;55.70;;;23.01;39.72;98513.00;5026071;28;124230;-79
2023/06/12 04:57:39;;;;;;;;;;;22.60;55.90;;;23.03;39.45;98518.22;5024646;28;124093;-79
2023/06/12 05:00:06;;;;;;;;;;;22.70;56.00;;;23.06;39.81;98517.41;5024768;28;114537;-78
2023/06/12 05:02:33;;;;;;;;;;;22.70;56.00;;;23.06;39.33;98521.03;5027949;27;113458;-79
2023/06/12 05:05:00;;;;;;;;;;;22.70;56.00;;;23.06;39.58;98523.06;5025386;28;124390;-79
2023/06/12 05:07:27;;;;;;;;;;;22.70;55.80;;;23.09;39.67;98525.06;5025129;28;124072;-78
2023/06/12 05:09:54;;;;;;;;;;;22.70;56.00;;;23.05;39.68;98521.44;5025137;28;115800;-79
2023/06/12 05:12:23;;;;;;;;;;;22.60;56.20;;;22.98;39.93;98525.06;5011120;28;113923;-79
2023/06/12 05:14:49;;;;;;;;;;;22.60;56.30;;;22.98;39.78;98527.09;5027467;28;124387;-79
2023/06/12 05:17:15;;;;;;;;;;;22.60;56.40;;;23.01;39.99;98526.28;5010568;28;122944;-79
2023/06/12 05:19:42;;;;;;;;;;;22.60;56.40;;;23.03;39.90;98523.88;5025780;28;114443;-78
2023/06/12 05:22:08;;;;;;;;;;;22.70;56.60;;;23.06;40.35;98534.34;5024499;28;113103;-79
2023/06/12 05:24:34;;;;;;;;;;;22.70;56.70;;;23.07;40.52;98527.47;5024098;28;124337;-79
2023/06/12 05:27:01;;;;;;;;;;;22.70;57.00;;;23.02;40.35;98530.69;5025983;28;123533;-79
2023/06/12 05:29:29;;;;;;;;;;;22.60;57.20;;;22.98;40.31;98533.53;5010916;28;113724;-79
2023/06/12 05:31:56;;;;;;;;;;;22.60;57.10;;;22.98;40.46;98527.09;5022334;28;113791;-81
2023/06/12 05:34:22;;;;;;;;;;;22.60;57.00;;;23.03;40.27;98532.31;5024150;28;123944;-80
2023/06/12 05:36:48;;;;;;;;;;;22.60;56.90;;;23.09;40.17;98533.53;5027601;27;124680;-78
2023/06/12 05:39:14;;;;;;;;;;;22.70;57.00;;;23.15;40.15;98537.53;5002912;28;113365;-79
2023/06/12 05:41:41;;;;;;;;;;;22.70;57.00;;;23.19;40.04;98538.34;5025727;28;113831;-80
2023/06/12 05:44:10;;;;;;;;;;;22.80;56.90;;;23.26;39.66;98537.53;5025562;27;125042;-80
2023/06/12 05:46:37;;;;;;;;;;;22.80;56.80;;;23.32;39.76;98533.91;5024517;28;122828;-80
2023/06/12 05:49:05;;;;;;;;;;;22.90;56.80;;;23.38;39.77;98539.94;5025475;28;114763;-79
2023/06/12 05:51:31;;;;;;;;;;;22.90;56.90;;;23.42;39.68;98534.28;5021370;28;113437;-80
2023/06/12 05:54:01;;;;;;;;;;;22.90;56.80;;;23.41;39.53;98535.50;5025186;28;124337;-80
2023/06/12 05:56:29;;;;;;;;;;;22.90;56.80;;;23.38;39.51;98537.13;5027100;28;124079;-80
2023/06/12 05:58:57;;;;;;;;;;;22.90;56.80;;;23.40;39.58;98531.06;5028967;27;114152;-80
2023/06/12 06:01:26;;;;;;;;;;;22.90;56.60;;;23.43;39.48;98533.06;5028151;27;114369;-80
2023/06/12 06:03:53;;;;;;;;;;;22.90;56.60;;;23.46;39.47;98526.63;5013047;28;123444;-79
2023/06/12 06:06:19;;;;;;;;;;;23.00;56.80;;;23.50;39.48;98524.59;5028768;28;124005;-79
2023/06/12 06:08:46;;;;;;;;;;;23.00;56.80;;;23.53;39.50;98535.06;5020937;27;118352;-78
2023/06/12 06:11:12;;;;;;;;;;;23.00;56.90;;;23.54;39.61;98525.41;5028917;28;114033;-79
2023/06/12 06:13:41;;;;;;;;;;;23.00;57.10;;;23.51;39.43;98520.59;5026213;28;124148;-79
2023/06/12 06:16:07;;;;;;;;;;;23.00;57.00;;;23.56;39.50;98528.59;5028910;28;124513;-79
2023/06/12 06:18:36;;;;;;;;;;;23.00;56.90;;;23.64;39.53;98532.22;5012623;28;113720;-79
2023/06/12 06:21:03;;;;;;;;;;;23.10;57.10;;;23.72;39.55;98534.66;5029773;28;112631;-79
2023/06/12 06:23:29;;;;;;;;;;;23.20;57.10;;;23.78;39.49;98533.03;5017889;27;123561;-79
2023/06/12 06:25:55;;;;;;;;;;;23.20;56.90;;;23.84;39.54;98532.63;5027099;28;123917;-79
2023/06/12 06:28:23;;;;;;;;;;;23.30;57.00;;;23.87;39.61;98532.59;5027063;28;114271;-80
2023/06/12 06:30:50;;;;;;;;;;;23.30;56.90;;;23.94;39.43;98540.25;5025908;28;114046;-80
2023/06/12 06:33:18;;;;;;;;;;;23.40;57.10;;;23.97;39.12;98543.03;5025671;27;123408;-79
2023/06/12 06:35:45;;;;;;;;;;;23.40;57.00;;;24.05;39.12;98538.19;5026547;28;124267;-80
2023/06/12 06:38:11;;;;;;;;;;;23.50;57.00;;;24.15;39.13;98537.34;5026482;27;114688;-76
2023/06/12 06:40:37;;;;;;;;;;;23.60;57.00;;;24.24;39.35;98543.31;5028086;28;113723;-76
2023/06/12 06:43:04;;;;;;;;;;;23.60;57.20;;;24.34;38.98;98532.38;5030459;27;124390;-76
2023/06/12 06:45:30;;;;;;;;;;;23.70;57.20;;;24.42;38.87;98534.75;5027294;28;124367;-76
2023/06/12 06:47:59;;;;;;;;;;;23.80;57.20;;;24.46;38.91;98535.56;5027613;28;115078;-76
2023/06/12 06:50:25;;;;;;;;;;;23.80;57.10;;;24.50;38.81;98531.91;5026854;28;114995;-77
2023/06/12 06:53:02;;;;;;;;;;;23.90;57.20;;;24.56;38.66;98533.91;5028018;28;124592;-77
2023/06/12 06:55:28;;;;;;;;;;;23.90;57.00;;;24.64;38.52;98529.03;5025480;28;123540;-75
2023/06/12 06:57:57;;;;;;;;;;;24.00;56.90;;;24.73;38.58;98528.53;5029012;28;114135;-75
2023/06/12 07:00:24;;;;;;;;;;;24.20;56.90;;;24.79;38.21;98524.06;5025355;28;114093;-71
2023/06/12 07:02:50;;;;;;;;;;;24.20;56.70;;;24.83;38.48;98533.31;5021864;28;124965;-75
2023/06/12 07:05:16;;;;;;;;;;;24.20;56.60;;;24.81;38.69;98533.72;5025450;28;123704;-75
2023/06/12 07:07:44;;;;;;;;;;;24.20;56.70;;;24.83;38.43;98524.84;5026383;28;114584;-76
2023/06/12 07:10:10;;;;;;;;;;;24.20;56.60;;;24.90;38.00;98521.94;5025377;28;113805;-78
2023/06/12 07:12:37;;;;;;;;;;;24.30;56.50;;;24.99;37.74;98522.28;5025283;28;124396;-76
2023/06/12 07:15:03;;;;;;;;;;;24.30;56.00;;;25.11;37.66;98515.31;5027179;28;123911;-75
2023/06/12 07:17:32;;;;;;;;;;;24.40;55.90;;;25.23;37.07;98514.03;5029747;27;114854;-75
2023/06/12 07:19:58;;;;;;;;;;;24.60;55.80;;;25.29;37.42;98520.84;5043545;27;113413;-75
2023/06/12 07:22:27;;;;;;;;;;;24.60;55.70;;;25.33;37.38;98530.09;4999707;28;123665;-77
2023/06/12 07:24:54;;;;;;;;;;;24.70;55.50;;;25.36;36.81;98523.59;5018876;27;123165;-81
2023/06/12 07:27:20;;;;;;;;;;;24.70;55.30;;;25.41;37.23;98523.13;5005538;28;113783;-76
2023/06/12 07:29:46;;;;;;;;;;;24.80;55.30;;;25.49;36.81;98526.69;5026943;28;113837;-76
2023/06/12 07:32:13;;;;;;;;;;;24.80;55.00;;;25.52;36.42;98520.19;5024082;28;124115;-76
2023/06/12 07:34:39;;;;;;;;;;;24.80;54.30;;;25.54;35.89;98535.53;5025952;28;123533;-76
2023/06/12 07:37:07;;;;;;;;;;;24.90;54.20;;;25.57;35.72;98523.38;5026311;27;115475;-76
2023/06/12 07:39:33;;;;;;;;;;;24.90;53.80;;;25.63;35.64;98520.91;5009484;28;113908;-76
2023/06/12 07:42:02;;;;;;;;;;;25.00;54.00;;;25.67;36.21;98526.53;5018505;27;125722;-76
2023/06/12 07:44:30;;;;;;;;;;;25.00;54.20;;;25.74;35.29;98520.78;5009954;28;123103;-76
2023/06/12 07:46:57;;;;;;;;;;;25.10;53.70;;;25.80;35.77;98516.25;5023507;28;114479;-76
2023/06/12 07:49:23;;;;;;;;;;;25.10;53.70;;;25.85;35.50;98515.03;5023126;28;113924;-77
2023/06/12 07:51:49;;;;;;;;;;;25.20;53.40;;;25.90;35.33;98512.53;5023536;28;124966;-77
2023/06/12 07:54:15;;;;;;;;;;;25.20;53.30;;;25.95;35.21;98509.25;5022364;28;124328;-77
2023/06/12 07:56:44;;;;;;;;;;;25.30;52.90;;;25.99;34.89;98509.97;5025439;28;114189;-77
2023/06/12 07:59:11;;;;;;;;;;;25.70;53.10;;;26.06;34.88;98513.94;5025097;28;113837;-77
2023/06/12 08:01:37;;;;;;;;;;;25.40;52.70;;;26.12;34.77;98507.41;5003365;28;124362;-77
2023/06/12 08:04:06;;;;;;;;;;;25.50;52.70;;;26.18;34.41;98499.22;5025823;28;123506;-76
2023/06/12 08:06:35;;;;;;;;;;;25.60;52.20;;;26.26;34.44;98500.75;5024741;28;114754;-77
2023/06/12 08:09:02;;;;;;;;;;;25.60;52.30;;;26.29;33.97;98494.22;5028811;27;112918;-77
2023/06/12 08:11:28;;;;;;;;;;;25.60;52.00;;;26.32;34.57;98501.06;5024840;28;124275;-77
2023/06/12 08:13:57;;;;;;;;;;;25.70;52.00;;;26.35;34.58;98497.38;5004090;28;122864;-76
2023/06/12 08:16:24;;;;;;;;;;;25.70;52.30;;;26.34;34.89;98501.44;5025277;28;114386;-77
2023/06/12 08:18:50;;;;;;;;;;;25.70;53.00;;;26.37;35.16;98494.91;5025854;28;114007;-76
2023/06/12 08:21:17;;;;;;;;;;;25.80;53.20;;;26.43;35.50;98494.00;5023866;28;124150;-75
2023/06/12 08:23:43;;;;;;;;;;;25.80;53.30;;;26.54;35.22;98498.75;5023925;28;124719;-75
2023/06/12 08:26:10;;;;;;;;;;;26.00;53.50;;;26.62;34.87;98494.56;5022806;28;114254;-77
2023/06/12 08:28:38;;;;;;;;;;;26.00;52.60;;;26.65;33.94;98493.72;5025755;28;115166;-77
2023/06/12 08:31:05;;;;;;;;;;;26.00;52.00;;;26.66;33.58;98489.66;5040153;27;124992;-75
2023/06/12 08:33:31;;;;;;;;;;;26.00;51.10;;;26.66;32.96;98484.00;5024635;28;124174;-75
2023/06/12 08:36:00;;;;;;;;;;;26.10;50.00;;;26.64;33.03;98487.25;5023792;28;114395;-77
2023/06/12 08:38:29;;;;;;;;;;;26.00;50.30;;;26.68;33.59;98481.53;5041996;27;114152;-76
2023/06/12 08:41:00;;;;;;;;;;;26.10;50.60;;;26.70;31.31;98490.41;5024886;27;124235;-76
2023/06/12 08:43:28;;;;;;;;;;;26.10;48.40;;;26.63;31.88;98499.03;5040847;27;124501;-76
2023/06/12 08:45:56;;;;;;;;;;;26.00;48.10;;;26.57;31.19;98498.72;5029061;28;114339;-76
2023/06/12 08:48:25;;;;;;;;;;;26.00;47.20;;;26.56;30.67;98482.13;5023120;28;113396;-77
2023/06/12 08:50:52;;;;;;;;;;;26.00;47.20;;;26.57;30.53;98489.38;5023335;28;123474;-77
2023/06/12 08:53:19;;;;;;;;;;;26.00;46.50;;;26.54;30.09;98485.38;5024163;28;124215;-76
2023/06/12 08:55:45;;;;;;;;;;;26.00;45.70;;;26.55;30.25;98489.03;5039751;27;114663;-77
2023/06/12 08:58:14;;;;;;;;;;;26.00;45.90;;;26.61;30.32;98481.66;5010797;28;112693;-77
2023/06/12 09:00:40;;;;;;;;;;;26.00;46.30;;;26.67;30.27;98485.59;5023968;27;124136;-77
2023/06/12 09:03:09;;;;;;;;;;;26.10;46.20;;;26.75;30.51;98480.63;5024633;28;124278;-76
2023/06/12 09:05:38;;;;;;;;;;;26.10;46.20;;;26.78;30.56;98486.22;5023451;28;114517;-76
2023/06/12 09:08:05;;;;;;;;;;;26.10;46.40;;;26.81;30.11;98485.38;5021959;28;115182;-76
2023/06/12 09:10:35;;;;;;;;;;;26.20;46.50;;;26.83;30.55;98482.09;5021989;28;124583;-76
2023/06/12 09:13:06;;;;;;;;;;;26.20;46.40;;;26.84;30.09;98478.84;5025133;28;123129;-76
2023/06/12 09:15:32;;;;;;;;;;;26.20;46.30;;;26.91;29.99;98488.47;5022791;28;114847;-76
2023/06/12 09:17:59;;;;;;;;;;;26.30;46.00;;;26.93;29.76;98481.13;5024460;28;114589;-75
2023/06/12 09:20:29;;;;;;;;;;;26.30;45.30;;;26.96;30.07;98479.47;5024225;28;124285;-77
2023/06/12 09:22:56;;;;;;;;;;;26.30;45.70;;;27.00;29.83;98475.34;5023919;28;124702;-76
2023/06/12 09:25:26;;;;;;;;;;;26.40;45.50;;;27.02;29.47;98484.19;5026130;28;114161;-76
2023/06/12 09:27:52;;;;;;;;;;;26.40;45.50;;;27.06;29.05;98475.66;5040044;27;113848;-76
2023/06/12 09:30:22;;;;;;;;;;;26.40;44.30;;;27.07;29.20;98472.38;5025398;28;124514;-77
2023/06/12 09:32:51;;;;;;;;;;;26.40;44.30;;;27.09;28.95;98466.28;5027580;27;124059;-77
2023/06/12 09:35:17;;;;;;;;;;;26.50;44.50;;;27.09;29.03;98472.75;5027733;28;114628;-75
2023/06/12 09:37:43;;;;;;;;;;;26.60;44.40;;;27.14;28.36;98468.63;5030103;27;112632;-75
2023/06/12 09:40:11;;;;;;;;;;;26.60;43.70;;;27.15;28.59;98464.53;5019331;27;124248;-79
2023/06/12 09:42:38;;;;;;;;;;;26.60;43.30;;;27.20;27.55;98475.41;5025064;28;124521;-81
2023/06/12 09:45:20;;;;;;;;;;;26.60;42.60;;;27.21;27.66;98474.16;5012840;28;113641;-79
2023/06/12 09:47:49;;;;;;;;;;;26.60;42.20;;;27.24;28.00;98470.50;5012912;28;113288;-80
2023/06/12 09:50:16;;;;;;;;;;;26.60;42.60;;;27.26;28.08;98470.84;5026674;28;124027;-80
2023/06/12 09:52:44;;;;;;;;;;;26.70;42.60;;;27.27;28.08;98468.78;5028716;27;123008;-80
2023/06/12 09:55:18;;;;;;;;;;;26.60;42.60;;;27.28;27.72;98467.56;5028852;28;114335;-80
2023/06/12 09:57:48;;;;;;;;;;;26.70;42.80;;;27.33;28.00;98469.13;5012400;27;112892;-80
2023/06/12 10:00:16;;;;;;;;;;;26.80;43.00;;;27.37;28.24;98462.13;5024493;28;124062;-80
2023/06/12 10:02:57;;;;;;;;;;;26.80;42.80;;;27.37;27.48;98459.28;5025494;28;123927;-80
2023/06/12 10:05:28;;;;;;;;;;;26.80;42.20;;;27.36;27.54;98466.22;5024872;28;115781;-81
2023/06/12 10:07:56;;;;;;;;;;;26.80;42.20;;;27.36;27.80;98462.56;5029871;28;114935;-80
2023/06/12 10:10:25;;;;;;;;;;;26.80;42.10;;;27.36;28.10;98462.56;5026577;28;124208;-81
2023/06/12 10:12:52;;;;;;;;;;;26.90;42.40;;;27.38;27.94;98463.75;5028929;28;123785;-81
2023/06/12 10:15:21;;;;;;;;;;;26.90;42.40;;;27.40;27.75;98466.13;5024585;27;114362;-78
2023/06/12 10:17:51;;;;;;;;;;;26.90;42.20;;;27.43;27.64;98459.59;5027274;28;113985;-81
2023/06/12 10:20:19;;;;;;;;;;;26.90;42.10;;;27.48;28.03;98456.25;5026215;28;124717;-81
2023/06/12 10:22:46;;;;;;;;;;;27.00;42.20;;;27.54;27.66;98451.69;5029603;28;123223;-81
2023/06/12 10:25:13;;;;;;;;;;;27.00;42.30;;;27.56;27.45;98449.19;5020185;28;113942;-81
2023/06/12 10:27:39;;;;;;;;;;;27.00;42.10;;;27.52;27.06;98440.75;5017957;28;113540;-79
2023/06/12 10:30:10;;;;;;;;;;;27.00;41.20;;;27.45;27.38;98432.38;5026879;28;124624;-79
2023/06/12 10:32:38;;;;;;;;;;;26.90;41.40;;;27.44;27.06;98435.66;5025679;27;123184;-79
2023/06/12 10:35:04;;;;;;;;;;;26.90;41.40;;;27.47;27.30;98448.97;5011488;28;114155;-79
2023/06/12 10:37:37;;;;;;;;;;;26.90;41.50;;;27.54;27.06;98440.34;5028563;27;111938;-79
2023/06/12 10:40:19;;;;;;;;;;;27.00;41.50;;;27.62;27.18;98441.78;5011300;27;124366;-80
2023/06/12 10:42:51;;;;;;;;;;;27.10;41.70;;;27.72;27.02;98435.06;5022154;28;123890;-79
2023/06/12 10:45:21;;;;;;;;;;;27.20;41.60;;;27.76;27.15;98429.34;5030280;27;114160;-79
2023/06/12 10:48:06;;;;;;;;;;;27.20;41.10;;;27.73;26.92;98418.84;5027528;28;113962;-79
2023/06/12 10:50:36;;;;;;;;;;;27.20;41.30;;;27.70;26.87;98423.38;5029485;27;124843;-80
2023/06/12 10:53:08;;;;;;;;;;;27.20;41.30;;;27.69;26.91;98418.13;5016780;28;124481;-80
2023/06/12 10:55:37;;;;;;;;;;;27.20;41.20;;;27.71;26.38;98421.31;5025988;28;115586;-80
2023/06/12 10:58:08;;;;;;;;;;;27.10;40.80;;;27.71;26.98;98409.97;5026254;28;115124;-79
2023/06/12 11:00:38;;;;;;;;;;;27.10;40.90;;;27.74;26.86;98428.97;5024697;28;124999;-80
2023/06/12 11:03:12;;;;;;;;;;;27.20;40.90;;;27.77;26.46;98420.38;5014564;27;124172;-79
2023/06/12 11:05:54;;;;;;;;;;;27.20;40.60;;;27.80;25.50;98426.41;5016991;27;115103;-80
2023/06/12 11:08:23;;;;;;;;;;;27.20;39.60;;;27.77;25.55;98409.00;5045528;27;113434;-80
2023/06/12 11:10:49;;;;;;;;;;;27.20;39.30;;;27.79;26.25;98407.78;5024659;28;124503;-80
2023/06/12 11:13:16;;;;;;;;;;;27.30;39.80;;;27.77;26.22;98414.69;5021824;27;123998;-79
2023/06/12 11:15:44;;;;;;;;;;;27.20;40.00;;;27.73;26.57;98411.13;5019790;27;114664;-80